createdAt,value
2022-12-13T00:01:32.115Z,0
2022-12-13T00:06:33.864Z,0
2022-12-13T00:11:35.723Z,0
2022-12-13T00:16:37.711Z,0
2022-12-13T00:21:39.561Z,0
2022-12-13T00:26:41.478Z,0
2022-12-13T00:32:00.540Z,0
2022-12-13T00:37:03.673Z,0
2022-12-13T00:49:15.898Z,0.88715
2022-12-13T00:54:17.954Z,0
2022-12-13T00:59:19.693Z,0
2022-12-13T01:04:21.431Z,0
2022-12-13T01:09:23.998Z,0
2022-12-13T01:14:25.523Z,0
2022-12-13T01:19:27.049Z,0
2022-12-13T01:24:28.599Z,0
2022-12-13T01:29:30.120Z,0
2022-12-13T01:34:31.704Z,0
2022-12-13T01:39:38.076Z,0
2022-12-13T01:44:40.062Z,0
2022-12-13T01:49:41.561Z,0
2022-12-13T01:54:46.659Z,0
2022-12-13T01:59:48.794Z,0
2022-12-13T02:04:50.428Z,0
2022-12-13T02:09:56.794Z,0
2022-12-13T02:15:00.601Z,0
2022-12-13T02:20:02.786Z,0
2022-12-13T02:25:04.737Z,0.88715
2022-12-13T02:30:06.748Z,0
2022-12-13T02:35:08.515Z,0
2022-12-13T02:40:10.450Z,0.88715
2022-12-13T02:45:18.651Z,0.88715
2022-12-13T02:50:22.793Z,1.16185
2022-12-13T02:55:28.110Z,0.47405
2022-12-13T03:00:30.268Z,0.8296
2022-12-13T03:05:31.752Z,2.50815
2022-12-13T03:10:33.468Z,2.9036
2022-12-13T03:15:35.058Z,4.96115
2022-12-13T03:20:36.502Z,7.6442
2022-12-13T03:25:38.276Z,15.60225
2022-12-13T03:30:39.775Z,14.9386
2022-12-13T03:35:44.467Z,19.1068
2022-12-13T03:40:47.340Z,20.5824
2022-12-13T03:45:49.208Z,16.59865
2022-12-13T03:50:51.039Z,22.4079
2022-12-13T03:55:52.749Z,29.6186
2022-12-13T04:00:54.519Z,36.77415
2022-12-13T04:05:56.358Z,53.53825
2022-12-13T04:10:58.461Z,62.85205
2022-12-13T04:16:00.444Z,74.9326
2022-12-13T04:21:02.567Z,81.97785
2022-12-13T04:26:04.360Z,85.703
2022-12-13T04:31:06.330Z,84.04295
2022-12-13T04:36:08.671Z,91.62255
2022-12-13T04:41:10.790Z,106.67145
2022-12-13T04:46:13.222Z,110.23115
2022-12-13T04:51:15.279Z,103.73925
2022-12-13T04:56:17.217Z,99.82965
2022-12-13T05:01:19.796Z,114.15975
2022-12-13T05:06:27.182Z,127.38315
2022-12-13T05:11:35.535Z,128.0468
2022-12-13T05:16:37.684Z,121.37045
2022-12-13T05:21:39.213Z,105.58375
2022-12-13T05:26:40.738Z,94.44445
2022-12-13T05:31:42.406Z,78.2147
2022-12-13T05:36:43.883Z,75.44795
2022-12-13T05:41:45.783Z,44.24345
2022-12-13T05:46:47.276Z,66.28245
2022-12-13T05:51:48.911Z,99.147
2022-12-13T05:56:50.559Z,168.89785
2022-12-13T06:01:52.196Z,214.80135
2022-12-13T06:06:53.728Z,274.7402
2022-12-13T06:12:00.750Z,384.3647
2022-12-13T06:17:03.134Z,403.04745
2022-12-13T06:22:04.692Z,390.17395
2022-12-13T06:27:06.294Z,378.75705
2022-12-13T06:32:07.735Z,411.401
2022-12-13T06:37:09.236Z,425.30705
2022-12-13T06:42:11.045Z,397.5311
2022-12-13T06:47:12.941Z,374.0165
2022-12-13T06:52:34.146Z,365.75425
2022-12-13T06:57:36.035Z,358.02635
2022-12-13T07:02:38.312Z,326.01175
2022-12-13T07:07:40.873Z,288.44465
2022-12-13T07:12:42.987Z,264.63345
2022-12-13T07:17:45.018Z,303.2521
2022-12-13T07:22:48.483Z,298.4944
2022-12-13T07:27:51.396Z,351.2967
2022-12-13T07:32:53.201Z,478.5144
2022-12-13T07:37:55.074Z,380.1395
2022-12-13T07:42:59.553Z,292.9609
2022-12-13T07:48:01.456Z,412.50585
2022-12-13T07:53:03.250Z,492.6772
2022-12-13T07:58:05.050Z,462.9293
2022-12-13T08:03:06.843Z,504.4593
2022-12-13T08:08:08.720Z,552.116
2022-12-13T08:13:10.780Z,436.6651
2022-12-13T08:18:12.558Z,370.2705
2022-12-13T08:23:14.463Z,458.8144
2022-12-13T08:28:16.347Z,597.1181
2022-12-13T08:33:18.677Z,568.49405
2022-12-13T08:38:22.741Z,532.4387
2022-12-13T08:43:25.490Z,418.18765
2022-12-13T08:48:27.215Z,331.10035
2022-12-13T08:53:31.760Z,332.31735
2022-12-13T08:58:42.390Z,432.95895
2022-12-13T09:03:43.871Z,521.70445
2022-12-13T09:08:45.366Z,587.5267
2022-12-13T09:13:54.080Z,659.3065
2022-12-13T09:19:06.541Z,702.5364
2022-12-13T09:24:27.118Z,677.97025
2022-12-13T09:29:28.624Z,578.80425
2022-12-13T09:34:30.170Z,518.4775
2022-12-13T09:39:31.664Z,476.57675
2022-12-13T09:44:43.948Z,540.9234
2022-12-13T09:49:52.724Z,570.1731
2022-12-13T09:54:55.252Z,555.69655
2022-12-13T10:00:00.031Z,671.07515
2022-12-13T10:05:03.657Z,687.8754
2022-12-13T10:10:05.325Z,774.18505
2022-12-13T10:15:07.661Z,843.7686
2022-12-13T10:20:09.156Z,863.28045
2022-12-13T10:25:10.659Z,940.24385
2022-12-13T10:30:12.167Z,1041.6061
2022-12-13T10:35:13.628Z,1070.78165
2022-12-13T10:40:15.112Z,1036.25705
2022-12-13T10:45:34.480Z,744.6253
2022-12-13T10:50:36.241Z,699.3609
2022-12-13T10:55:37.788Z,945.965
2022-12-13T11:00:39.778Z,659.73055
2022-12-13T11:05:41.592Z,728.79505
2022-12-13T11:10:43.431Z,1081.98025
2022-12-13T11:15:45.317Z,938.32335
2022-12-13T11:20:54.075Z,1197.76665
2022-12-13T11:25:56.056Z,1020.11305
2022-12-13T11:30:57.868Z,1008.47925
2022-12-13T11:36:03.463Z,1508.395
2022-12-13T11:41:05.525Z,1079.3669
2022-12-13T11:46:07.609Z,1020.7994
2022-12-13T11:51:09.296Z,1115.0478
2022-12-13T11:56:11.318Z,1134.6681
2022-12-13T12:01:13.359Z,1134.7594
2022-12-13T12:06:15.235Z,1133.48725
2022-12-13T12:11:17.052Z,1086.05115
2022-12-13T12:16:19.131Z,1246.9889
2022-12-13T12:21:20.988Z,1568.4918
2022-12-13T12:26:22.902Z,1623.46395
2022-12-13T12:31:24.771Z,1642.7589
2022-12-13T12:36:26.673Z,1127.96165
2022-12-13T12:41:28.272Z,1472.9963
2022-12-13T12:46:31.194Z,1326.60925
2022-12-13T12:51:33.010Z,1446.9031
2022-12-13T12:56:34.656Z,1361.1468
2022-12-13T13:01:43.545Z,1230.8945
2022-12-13T13:06:46.251Z,818.62825
2022-12-13T13:11:50.912Z,758.2482
2022-12-13T13:16:59.453Z,697.1322
2022-12-13T13:22:02.549Z,535.84825
2022-12-13T13:27:04.489Z,429.1198
2022-12-13T13:32:06.585Z,398.0256
2022-12-13T13:37:08.366Z,395.42615
2022-12-13T13:42:10.163Z,397.824
2022-12-13T13:47:12.985Z,493.6889
2022-12-13T13:52:26.491Z,563.91895
2022-12-13T13:57:45.547Z,405.221
2022-12-13T14:03:22.351Z,323.4466
2022-12-13T14:08:30.942Z,340.8002
2022-12-13T14:13:32.389Z,312.0297
2022-12-13T14:18:34.246Z,276.58285
2022-12-13T14:23:35.777Z,243.589
2022-12-13T14:28:37.365Z,218.30405
2022-12-13T14:33:38.889Z,137.78465
2022-12-13T14:38:49.464Z,81.46065
2022-12-13T14:43:51.264Z,78.39915
2022-12-13T14:48:53.512Z,85.3151
2022-12-13T14:53:55.470Z,78.04925
2022-12-13T14:58:57.513Z,74.24995
2022-12-13T15:03:59.701Z,77.91995
2022-12-13T15:09:02.603Z,87.3992
2022-12-13T15:14:07.146Z,75.6514
2022-12-13T15:19:13.296Z,72.3503
2022-12-13T15:24:31.664Z,77.2563
2022-12-13T15:29:33.160Z,80.98145
2022-12-13T15:34:34.680Z,81.09175
2022-12-13T15:39:36.178Z,76.92355
2022-12-13T15:44:37.741Z,79.1921
2022-12-13T15:49:40.191Z,77.66135
2022-12-13T15:54:42.089Z,70.8747
2022-12-13T15:59:43.913Z,69.47325
2022-12-13T16:04:45.750Z,62.00395
2022-12-13T16:09:47.559Z,51.97135
2022-12-13T16:14:50.123Z,45.71905
2022-12-13T16:19:52.446Z,40.0201
2022-12-13T16:24:54.412Z,32.0716
2022-12-13T16:29:56.176Z,30.3564
2022-12-13T16:34:57.964Z,21.3012
2022-12-13T16:39:59.890Z,19.40155
2022-12-13T16:45:32.778Z,16.1556
2022-12-13T16:50:42.108Z,8.2071
2022-12-13T16:55:43.583Z,5.6887
2022-12-13T17:00:59.993Z,4.148
2022-12-13T17:06:01.958Z,2.13325
2022-12-13T17:11:06.039Z,0.8296
2022-12-13T17:16:08.267Z,1.16185
2022-12-13T17:21:09.945Z,0
2022-12-13T17:26:11.408Z,0.88715
2022-12-13T17:31:12.998Z,0.88715
2022-12-13T17:36:14.527Z,0.88715
2022-12-13T17:41:16.088Z,0
2022-12-13T17:46:17.581Z,0
2022-12-13T17:51:19.356Z,0
2022-12-13T17:56:20.901Z,0
2022-12-13T18:01:22.653Z,0
2022-12-13T18:06:24.614Z,0
2022-12-13T18:11:34.372Z,0
2022-12-13T18:16:38.397Z,0
2022-12-13T18:21:40.942Z,0
2022-12-13T18:26:42.397Z,0
2022-12-13T18:31:44.440Z,0
2022-12-13T18:36:46.016Z,0
2022-12-13T18:41:47.522Z,0
2022-12-13T18:46:49.113Z,0
2022-12-13T18:51:51.044Z,0
2022-12-13T18:56:52.457Z,0
2022-12-13T19:01:54.165Z,0
2022-12-13T19:06:55.812Z,0
2022-12-13T19:12:18.944Z,0
2022-12-13T19:17:20.881Z,0
2022-12-13T19:22:23.620Z,0
2022-12-13T19:27:25.646Z,0.88715
2022-12-13T19:32:27.583Z,0
2022-12-13T19:37:29.232Z,0
2022-12-13T19:42:30.718Z,0
2022-12-13T19:47:32.213Z,0
2022-12-13T19:52:33.984Z,0
2022-12-13T19:57:38.029Z,0
2022-12-13T20:02:39.562Z,0
2022-12-13T20:07:41.052Z,0
2022-12-13T20:12:42.718Z,0
2022-12-13T20:17:44.266Z,0
2022-12-13T20:22:48.373Z,0
2022-12-13T20:27:59.327Z,0
2022-12-13T20:33:03.557Z,0
2022-12-13T20:38:05.042Z,0
2022-12-13T20:43:07.054Z,0
2022-12-13T20:55:22.375Z,0
2022-12-13T21:00:24.445Z,0
2022-12-13T21:05:26.194Z,0
2022-12-13T21:10:28.185Z,0
2022-12-13T21:15:29.713Z,0
2022-12-13T21:20:31.412Z,0
2022-12-13T21:25:33.111Z,0
2022-12-13T21:30:35.194Z,0
2022-12-13T21:35:36.650Z,0
2022-12-13T21:40:38.419Z,0
2022-12-13T21:45:40.212Z,0
2022-12-13T21:50:41.965Z,0
2022-12-13T21:55:44.019Z,0
2022-12-13T22:00:49.901Z,0
2022-12-13T22:05:51.722Z,0.88715
2022-12-13T22:10:53.727Z,0
2022-12-13T22:15:55.476Z,0
2022-12-13T22:20:57.179Z,0
2022-12-13T22:25:59.254Z,0
2022-12-13T22:31:00.879Z,0
2022-12-13T22:36:02.561Z,0
2022-12-13T22:41:04.518Z,0
2022-12-13T22:46:06.341Z,0
2022-12-13T22:51:08.250Z,0
2022-12-13T22:56:10.348Z,0
2022-12-13T23:01:12.404Z,0
2022-12-13T23:06:14.413Z,0
2022-12-13T23:11:16.467Z,0
2022-12-13T23:16:18.441Z,0
2022-12-13T23:21:20.229Z,0
2022-12-13T23:26:22.675Z,0
2022-12-13T23:31:24.482Z,0
2022-12-13T23:36:26.253Z,0
2022-12-13T23:41:33.330Z,0
2022-12-13T23:46:35.419Z,0
2022-12-13T23:51:36.954Z,0
2022-12-13T23:56:38.815Z,0
